createdAt,value
2018-11-25T00:01:28.948Z,40.60
2018-11-25T00:03:56.196Z,42.83
2018-11-25T00:06:23.453Z,44.10
2018-11-25T00:08:50.654Z,44.60
2018-11-25T00:11:17.909Z,47.63
2018-11-25T00:13:45.077Z,42.53
2018-11-25T00:16:12.246Z,41.77
2018-11-25T00:18:39.466Z,47.97
2018-11-25T00:21:07.007Z,39.90
2018-11-25T00:23:34.238Z,46.43
2018-11-25T00:26:01.456Z,50.23
2018-11-25T00:28:28.707Z,51.80
2018-11-25T00:30:55.953Z,50.23
2018-11-25T00:33:23.158Z,54.10
2018-11-25T00:35:50.433Z,50.20
2018-11-25T00:38:17.756Z,53.17
2018-11-25T00:40:44.954Z,48.43
2018-11-25T00:43:12.169Z,49.00
2018-11-25T00:45:39.401Z,56.00
2018-11-25T00:48:06.633Z,53.93
2018-11-25T00:50:33.850Z,56.40
2018-11-25T00:53:01.026Z,50.77
2018-11-25T00:55:28.253Z,51.83
2018-11-25T00:57:55.452Z,52.57
2018-11-25T01:00:22.607Z,51.47
2018-11-25T01:02:50.210Z,56.80
2018-11-25T01:05:17.485Z,54.57
2018-11-25T01:07:44.693Z,56.53
2018-11-25T01:10:15.730Z,51.97
2018-11-25T01:12:43.144Z,54.30
2018-11-25T01:15:15.149Z,54.73
2018-11-25T01:17:42.440Z,58.60
2018-11-25T01:20:11.655Z,47.77
2018-11-25T01:22:38.820Z,51.47
2018-11-25T01:25:07.380Z,49.73
2018-11-25T01:27:34.594Z,54.10
2018-11-25T01:30:01.879Z,56.73
2018-11-25T01:32:29.069Z,57.60
2018-11-25T01:35:01.071Z,55.73
2018-11-25T01:37:23.580Z,56.10
2018-11-25T01:39:50.831Z,50.47
2018-11-25T01:42:18.042Z,60.80
2018-11-25T01:44:45.234Z,65.47
2018-11-25T01:47:12.438Z,60.10
2018-11-25T01:49:39.658Z,53.07
2018-11-25T01:52:06.905Z,56.30
2018-11-25T01:54:34.137Z,57.30
2018-11-25T01:57:01.405Z,54.93
2018-11-25T01:59:28.627Z,56.00
2018-11-25T02:01:55.823Z,59.20
2018-11-25T02:04:23.011Z,52.03
2018-11-25T02:06:50.294Z,54.77
2018-11-25T02:09:17.467Z,55.90
2018-11-25T02:11:44.725Z,55.67
2018-11-25T02:14:11.858Z,53.10
2018-11-25T02:16:39.067Z,53.47
2018-11-25T02:19:06.298Z,50.83
2018-11-25T02:21:33.533Z,54.97
2018-11-25T02:24:00.728Z,55.77
2018-11-25T02:26:27.935Z,54.17
2018-11-25T02:28:55.122Z,57.03
2018-11-25T02:31:22.351Z,49.33
2018-11-25T02:33:49.553Z,44.77
2018-11-25T02:36:16.831Z,43.93
2018-11-25T02:38:44.042Z,42.50
2018-11-25T02:41:11.241Z,41.57
2018-11-25T02:43:38.659Z,34.63
2018-11-25T02:46:05.881Z,40.90
2018-11-25T02:48:33.054Z,37.03
2018-11-25T02:51:00.207Z,29.20
2018-11-25T02:53:27.379Z,36.60
2018-11-25T02:55:54.534Z,39.43
2018-11-25T02:58:21.730Z,34.70
2018-11-25T03:00:49.001Z,36.17
2018-11-25T03:03:16.219Z,37.80
2018-11-25T03:05:43.474Z,37.00
2018-11-25T03:08:10.618Z,36.60
2018-11-25T03:10:37.875Z,41.17
2018-11-25T03:13:05.072Z,36.90
2018-11-25T03:15:32.181Z,39.37
2018-11-25T03:17:59.393Z,39.00
2018-11-25T03:20:26.665Z,38.20
2018-11-25T03:22:53.886Z,36.87
2018-11-25T03:25:21.203Z,40.17
2018-11-25T03:27:48.524Z,35.43
2018-11-25T03:30:16.813Z,39.20
2018-11-25T03:32:45.045Z,36.60
2018-11-25T03:35:12.978Z,41.10
2018-11-25T03:37:40.149Z,34.87
2018-11-25T03:40:11.679Z,39.43
2018-11-25T03:42:38.901Z,39.43
2018-11-25T03:45:12.094Z,43.73
2018-11-25T03:47:39.317Z,35.37
2018-11-25T03:50:07.571Z,37.10
2018-11-25T03:52:34.743Z,39.50
2018-11-25T03:55:02.202Z,31.40
2018-11-25T03:57:29.437Z,30.70
2018-11-25T03:59:56.642Z,36.33
2018-11-25T04:02:23.797Z,35.63
2018-11-25T04:04:50.971Z,32.10
2018-11-25T04:07:18.250Z,34.03
2018-11-25T04:09:45.418Z,40.50
2018-11-25T04:12:12.587Z,38.93
2018-11-25T04:14:39.781Z,34.57
2018-11-25T04:17:07.075Z,42.37
2018-11-25T04:19:34.920Z,41.50
2018-11-25T04:22:02.119Z,39.73
2018-11-25T04:24:29.310Z,40.43
2018-11-25T04:26:56.555Z,37.10
2018-11-25T04:29:23.711Z,39.07
2018-11-25T04:31:50.926Z,32.63
2018-11-25T04:34:18.154Z,35.90
2018-11-25T04:36:45.385Z,43.33
2018-11-25T04:39:12.625Z,39.17
2018-11-25T04:41:39.797Z,43.37
2018-11-25T04:44:07.019Z,36.40
2018-11-25T04:46:34.232Z,34.73
2018-11-25T04:49:01.490Z,33.07
2018-11-25T04:51:28.660Z,36.17
2018-11-25T04:53:55.882Z,41.87
2018-11-25T04:56:23.167Z,41.50
2018-11-25T04:58:50.410Z,45.60
2018-11-25T05:01:17.589Z,42.93
2018-11-25T05:03:44.838Z,40.87
2018-11-25T05:06:12.055Z,42.13
2018-11-25T05:08:39.305Z,38.87
2018-11-25T05:11:06.553Z,41.83
2018-11-25T05:13:33.797Z,40.53
2018-11-25T05:16:01.006Z,36.80
2018-11-25T05:18:28.253Z,41.80
2018-11-25T05:20:55.498Z,42.23
2018-11-25T05:23:22.712Z,34.07
2018-11-25T05:25:49.865Z,42.60
2018-11-25T05:28:17.209Z,41.73
2018-11-25T05:30:44.362Z,37.30
2018-11-25T05:33:11.556Z,38.00
2018-11-25T05:35:38.822Z,36.30
2018-11-25T05:38:06.010Z,38.37
2018-11-25T05:40:33.226Z,39.17
2018-11-25T05:43:00.435Z,37.97
2018-11-25T05:45:27.595Z,41.17
2018-11-25T05:47:54.766Z,32.20
2018-11-25T05:50:21.967Z,42.27
2018-11-25T05:52:49.198Z,43.47
2018-11-25T05:55:16.405Z,44.70
2018-11-25T05:57:43.585Z,43.27
2018-11-25T06:00:13.418Z,43.30
2018-11-25T06:02:40.666Z,40.70
2018-11-25T06:05:07.949Z,42.60
2018-11-25T06:07:35.240Z,40.77
2018-11-25T06:10:03.454Z,33.83
2018-11-25T06:12:30.674Z,36.67
2018-11-25T06:14:57.937Z,40.90
2018-11-25T06:17:25.101Z,37.20
2018-11-25T06:19:52.331Z,39.80
2018-11-25T06:22:19.450Z,40.40
2018-11-25T06:24:46.644Z,38.67
2018-11-25T06:27:13.844Z,42.57
2018-11-25T06:29:41.016Z,39.27
2018-11-25T06:32:08.209Z,37.27
2018-11-25T06:34:35.445Z,37.40
2018-11-25T06:37:02.699Z,38.63
2018-11-25T06:39:29.904Z,43.20
2018-11-25T06:41:57.094Z,41.03
2018-11-25T06:44:24.269Z,47.73
2018-11-25T06:46:51.484Z,43.80
2018-11-25T06:49:18.662Z,100.80
2018-11-25T06:51:45.845Z,81.57
2018-11-25T06:54:12.996Z,82.40
2018-11-25T06:56:40.170Z,42.87
2018-11-25T06:59:07.365Z,44.97
2018-11-25T07:01:34.578Z,43.90
2018-11-25T07:04:01.789Z,37.57
2018-11-25T07:06:28.966Z,36.37
2018-11-25T07:08:56.178Z,40.33
2018-11-25T07:11:23.381Z,39.33
2018-11-25T07:13:50.568Z,44.57
2018-11-25T07:16:17.790Z,45.67
2018-11-25T07:18:44.983Z,39.37
2018-11-25T07:21:12.210Z,37.27
2018-11-25T07:23:39.481Z,40.13
2018-11-25T07:26:06.738Z,41.97
2018-11-25T07:28:33.913Z,38.47
2018-11-25T07:31:01.177Z,39.70
2018-11-25T07:33:28.434Z,39.50
2018-11-25T07:35:55.657Z,38.30
2018-11-25T07:38:22.841Z,37.67
2018-11-25T07:40:50.083Z,44.33
2018-11-25T07:43:17.301Z,46.90
2018-11-25T07:45:44.499Z,43.53
2018-11-25T07:48:11.734Z,45.30
2018-11-25T07:50:38.955Z,48.83
2018-11-25T07:53:06.143Z,54.17
2018-11-25T07:55:33.519Z,52.90
2018-11-25T07:58:00.744Z,52.43
2018-11-25T08:00:28.158Z,47.13
2018-11-25T08:02:55.387Z,42.93
2018-11-25T08:05:23.758Z,43.83
2018-11-25T08:07:51.002Z,45.87
2018-11-25T08:10:18.207Z,50.37
2018-11-25T08:12:46.057Z,44.17
2018-11-25T08:15:15.266Z,51.97
2018-11-25T08:17:42.574Z,46.20
2018-11-25T08:20:13.045Z,46.60
2018-11-25T08:22:40.269Z,46.33
2018-11-25T08:25:09.710Z,49.70
2018-11-25T08:27:36.985Z,41.13
2018-11-25T08:30:12.750Z,45.97
2018-11-25T08:32:39.956Z,45.67
2018-11-25T08:35:08.201Z,49.57
2018-11-25T08:37:35.458Z,55.83
2018-11-25T08:40:02.819Z,47.37
2018-11-25T08:42:30.065Z,48.50
2018-11-25T08:44:57.308Z,54.07
2018-11-25T08:47:24.561Z,47.30
2018-11-25T08:49:51.806Z,54.67
2018-11-25T08:52:19.036Z,41.37
2018-11-25T08:54:49.443Z,44.10
2018-11-25T08:57:23.530Z,42.20
2018-11-25T08:59:50.794Z,47.13
2018-11-25T09:02:18.009Z,44.80
2018-11-25T09:04:45.259Z,46.73
2018-11-25T09:07:12.481Z,41.93
2018-11-25T09:09:39.657Z,36.13
2018-11-25T09:12:06.880Z,48.93
2018-11-25T09:14:34.194Z,46.57
2018-11-25T09:17:01.419Z,41.33
2018-11-25T09:19:28.610Z,45.83
2018-11-25T09:21:55.778Z,39.27
2018-11-25T09:24:23.001Z,38.50
2018-11-25T09:26:50.181Z,37.33
2018-11-25T09:29:17.381Z,42.77
2018-11-25T09:31:44.638Z,39.27
2018-11-25T09:34:11.968Z,40.90
2018-11-25T09:36:39.198Z,41.50
2018-11-25T09:39:07.852Z,40.00
2018-11-25T09:41:35.040Z,40.47
2018-11-25T09:44:02.314Z,47.00
2018-11-25T09:46:29.550Z,44.27
2018-11-25T09:48:56.869Z,43.43
2018-11-25T09:51:24.055Z,50.93
2018-11-25T09:53:51.263Z,43.97
2018-11-25T09:56:18.467Z,45.53
2018-11-25T09:58:45.673Z,38.10
2018-11-25T10:01:13.621Z,35.97
2018-11-25T10:03:40.856Z,34.77
2018-11-25T10:06:08.059Z,39.30
2018-11-25T10:08:35.263Z,35.03
2018-11-25T10:11:02.557Z,35.60
2018-11-25T10:13:29.780Z,30.20
2018-11-25T10:15:57.026Z,33.60
2018-11-25T10:18:24.306Z,35.60
2018-11-25T10:20:51.503Z,32.60
2018-11-25T10:23:18.728Z,27.03
2018-11-25T10:25:46.053Z,30.47
2018-11-25T10:28:13.206Z,33.53
2018-11-25T10:30:40.490Z,31.30
2018-11-25T10:33:08.660Z,28.23
2018-11-25T10:35:35.844Z,30.70
2018-11-25T10:38:03.964Z,33.00
2018-11-25T10:40:32.485Z,33.10
2018-11-25T10:43:00.055Z,34.80
2018-11-25T10:45:28.166Z,29.73
2018-11-25T10:47:56.220Z,23.33
2018-11-25T10:50:23.992Z,29.50
2018-11-25T10:52:51.599Z,27.87
2018-11-25T10:55:20.256Z,26.67
2018-11-25T10:57:49.517Z,34.90
2018-11-25T11:00:31.285Z,30.57
2018-11-25T11:03:04.233Z,26.03
2018-11-25T11:05:37.453Z,29.00
2018-11-25T11:08:05.297Z,26.30
2018-11-25T11:10:32.501Z,25.27
2018-11-25T11:12:59.765Z,23.90
2018-11-25T11:15:27.082Z,23.47
2018-11-25T11:17:56.574Z,24.90
2018-11-25T11:20:26.151Z,23.70
2018-11-25T11:22:56.019Z,25.83
2018-11-25T11:25:23.277Z,20.43
2018-11-25T11:27:50.885Z,24.57
2018-11-25T11:30:18.174Z,24.87
2018-11-25T11:32:47.580Z,24.77
2018-11-25T11:35:14.880Z,24.97
2018-11-25T11:37:42.116Z,23.63
2018-11-25T11:40:10.839Z,31.17
2018-11-25T11:42:38.006Z,24.30
2018-11-25T11:45:14.890Z,24.67
2018-11-25T11:47:43.091Z,19.67
2018-11-25T11:50:14.204Z,28.17
2018-11-25T11:52:41.505Z,35.07
2018-11-25T11:55:10.692Z,23.50
2018-11-25T11:57:38.284Z,23.70
2018-11-25T12:00:22.042Z,21.97
2018-11-25T12:02:49.483Z,19.90
2018-11-25T12:05:16.682Z,21.20
2018-11-25T12:07:43.877Z,18.57
2018-11-25T12:10:13.102Z,20.07
2018-11-25T12:12:40.372Z,17.20
2018-11-25T12:15:15.063Z,19.03
2018-11-25T12:17:43.134Z,16.83
2018-11-25T12:20:10.659Z,18.70
2018-11-25T12:22:37.921Z,20.23
2018-11-25T12:25:08.797Z,21.40
2018-11-25T12:27:36.034Z,22.27
2018-11-25T12:30:03.429Z,21.60
2018-11-25T12:32:30.649Z,17.43
2018-11-25T12:34:57.829Z,20.83
2018-11-25T12:37:25.047Z,20.43
2018-11-25T12:39:52.270Z,17.77
2018-11-25T12:42:19.427Z,15.10
2018-11-25T12:44:47.121Z,18.07
2018-11-25T12:47:14.421Z,15.10
2018-11-25T12:49:41.657Z,17.67
2018-11-25T12:52:08.948Z,15.13
2018-11-25T12:54:36.830Z,19.07
2018-11-25T12:57:04.194Z,18.97
2018-11-25T12:59:31.442Z,20.60
2018-11-25T13:01:58.710Z,20.47
2018-11-25T13:04:27.840Z,16.23
2018-11-25T13:06:53.139Z,19.53
2018-11-25T13:09:20.357Z,19.20
2018-11-25T13:11:52.323Z,16.40
2018-11-25T13:14:14.816Z,17.03
2018-11-25T13:16:42.669Z,15.33
2018-11-25T13:19:11.401Z,14.83
2018-11-25T13:21:38.586Z,14.60
2018-11-25T13:24:05.760Z,17.60
2018-11-25T13:26:33.076Z,16.70
2018-11-25T13:29:00.290Z,14.43
2018-11-25T13:31:27.510Z,16.13
2018-11-25T13:33:54.718Z,14.27
2018-11-25T13:36:21.927Z,16.07
2018-11-25T13:38:49.094Z,11.23
2018-11-25T13:41:16.278Z,12.03
2018-11-25T13:43:43.494Z,14.97
2018-11-25T13:46:10.738Z,18.80
2018-11-25T13:48:37.929Z,13.37
2018-11-25T13:51:07.131Z,16.10
2018-11-25T13:53:34.408Z,15.07
2018-11-25T13:56:01.562Z,16.43
2018-11-25T13:58:28.764Z,15.00
2018-11-25T14:00:55.983Z,15.27
2018-11-25T14:03:29.898Z,15.03
2018-11-25T14:05:57.090Z,15.00
2018-11-25T14:08:24.422Z,15.70
2018-11-25T14:11:06.057Z,16.37
2018-11-25T14:13:33.272Z,17.43
2018-11-25T14:16:00.519Z,20.60
2018-11-25T14:18:27.649Z,19.10
2018-11-25T14:20:54.859Z,17.30
2018-11-25T14:23:22.008Z,20.23
2018-11-25T14:25:49.586Z,19.97
2018-11-25T14:28:16.900Z,16.20
2018-11-25T14:30:44.409Z,18.27
2018-11-25T14:33:11.697Z,15.50
2018-11-25T14:35:38.941Z,15.07
2018-11-25T14:38:06.844Z,18.07
2018-11-25T14:40:34.126Z,18.33
2018-11-25T14:43:01.341Z,16.57
2018-11-25T14:45:28.526Z,16.47
2018-11-25T14:47:55.788Z,16.47
2018-11-25T14:50:23.079Z,19.80
2018-11-25T14:52:51.593Z,18.37
2018-11-25T14:55:19.311Z,19.03
2018-11-25T14:57:46.622Z,31.53
2018-11-25T15:00:17.051Z,14.70
2018-11-25T15:02:45.738Z,15.87
2018-11-25T15:05:15.809Z,15.33
2018-11-25T15:07:43.015Z,15.77
2018-11-25T15:10:10.801Z,15.13
2018-11-25T15:12:37.505Z,32.20
2018-11-25T15:15:08.489Z,19.37
2018-11-25T15:17:35.692Z,14.23
2018-11-25T15:20:04.156Z,17.10
2018-11-25T15:22:31.671Z,17.00
2018-11-25T15:24:59.090Z,15.50
2018-11-25T15:27:26.638Z,15.50
2018-11-25T15:29:54.092Z,10.93
2018-11-25T15:32:21.729Z,13.90
2018-11-25T15:34:49.626Z,14.77
2018-11-25T15:37:17.163Z,16.40
2018-11-25T15:39:44.914Z,13.63
2018-11-25T15:42:12.418Z,14.80
2018-11-25T15:44:39.861Z,14.67
2018-11-25T15:47:08.227Z,12.67
2018-11-25T15:49:35.389Z,11.10
2018-11-25T15:52:03.103Z,13.03
2018-11-25T15:54:30.543Z,14.60
2018-11-25T15:56:57.980Z,13.00
2018-11-25T15:59:25.506Z,14.10
2018-11-25T16:01:52.956Z,13.53
2018-11-25T16:04:20.488Z,12.53
2018-11-25T16:06:47.920Z,14.70
2018-11-25T16:09:15.366Z,14.67
2018-11-25T16:11:42.826Z,13.03
2018-11-25T16:14:10.271Z,12.70
2018-11-25T16:16:37.690Z,13.30
2018-11-25T16:19:05.124Z,12.50
2018-11-25T16:21:32.524Z,14.20
2018-11-25T16:23:59.907Z,15.90
2018-11-25T16:26:29.968Z,15.63
2018-11-25T16:29:00.581Z,17.13
2018-11-25T16:31:27.906Z,15.57
2018-11-25T16:33:55.222Z,18.60
2018-11-25T16:36:22.524Z,12.87
2018-11-25T16:38:49.834Z,15.37
2018-11-25T16:41:17.105Z,12.27
2018-11-25T16:43:44.430Z,13.40
2018-11-25T16:46:11.896Z,12.73
2018-11-25T16:48:39.462Z,17.07
2018-11-25T16:51:07.052Z,15.40
2018-11-25T16:53:34.545Z,15.20
2018-11-25T16:56:01.937Z,13.17
2018-11-25T16:58:29.540Z,14.50
2018-11-25T17:00:56.946Z,11.27
2018-11-25T17:03:24.275Z,16.50
2018-11-25T17:05:52.362Z,16.00
2018-11-25T17:08:31.133Z,15.10
2018-11-25T17:10:58.481Z,16.67
2018-11-25T17:13:25.850Z,13.83
2018-11-25T17:15:53.302Z,11.80
2018-11-25T17:18:21.335Z,16.43
2018-11-25T17:20:48.743Z,13.50
2018-11-25T17:23:16.220Z,12.30
2018-11-25T17:25:43.738Z,14.60
2018-11-25T17:28:11.125Z,12.50
2018-11-25T17:30:38.511Z,15.00
2018-11-25T17:33:06.539Z,14.93
2018-11-25T17:35:33.890Z,12.30
2018-11-25T17:38:01.263Z,11.97
2018-11-25T17:40:28.792Z,14.87
2018-11-25T17:42:56.098Z,13.77
2018-11-25T17:45:23.448Z,13.83
2018-11-25T17:47:50.814Z,13.97
2018-11-25T17:50:27.427Z,13.97
2018-11-25T17:52:55.104Z,13.10
2018-11-25T17:55:24.109Z,14.43
2018-11-25T17:57:51.660Z,18.40
2018-11-25T18:00:38.027Z,13.00
2018-11-25T18:03:23.135Z,13.13
2018-11-25T18:05:50.525Z,14.53
2018-11-25T18:08:18.053Z,12.80
2018-11-25T18:10:45.444Z,14.33
2018-11-25T18:13:12.949Z,14.43
2018-11-25T18:15:40.385Z,14.47
2018-11-25T18:18:10.750Z,19.43
2018-11-25T18:20:45.197Z,18.50
2018-11-25T18:23:12.695Z,15.37
2018-11-25T18:25:40.153Z,18.50
2018-11-25T18:28:07.563Z,18.83
2018-11-25T18:30:35.034Z,14.97
2018-11-25T18:33:03.071Z,17.30
2018-11-25T18:35:30.695Z,17.87
2018-11-25T18:37:58.236Z,18.63
2018-11-25T18:40:25.566Z,17.63
2018-11-25T18:42:52.955Z,18.43
2018-11-25T18:45:20.372Z,18.63
2018-11-25T18:47:50.145Z,21.20
2018-11-25T18:50:18.188Z,19.93
2018-11-25T18:52:47.529Z,18.67
2018-11-25T18:55:13.802Z,18.07
2018-11-25T18:57:41.243Z,19.50
2018-11-25T19:00:11.152Z,18.40
2018-11-25T19:02:40.854Z,20.07
2018-11-25T19:05:08.712Z,22.63
2018-11-25T19:07:36.743Z,21.73
2018-11-25T19:10:08.528Z,20.73
2018-11-25T19:12:43.734Z,19.63
2018-11-25T19:15:05.098Z,25.90
2018-11-25T19:17:32.845Z,19.10
2018-11-25T19:20:01.599Z,21.30
2018-11-25T19:22:29.528Z,19.60
2018-11-25T19:24:57.226Z,22.33
2018-11-25T19:27:25.055Z,21.80
2018-11-25T19:29:53.163Z,18.07
2018-11-25T19:32:20.897Z,21.63
2018-11-25T19:34:48.763Z,22.23
2018-11-25T19:37:17.241Z,17.90
2018-11-25T19:39:45.020Z,21.27
2018-11-25T19:42:13.258Z,18.73
2018-11-25T19:44:41.023Z,18.80
2018-11-25T19:47:09.269Z,19.27
2018-11-25T19:49:37.060Z,31.67
2018-11-25T19:52:04.949Z,22.30
2018-11-25T19:54:33.116Z,17.83
2018-11-25T19:57:02.189Z,23.30
2018-11-25T19:59:30.005Z,17.80
2018-11-25T20:01:57.879Z,22.63
2018-11-25T20:04:27.783Z,19.70
2018-11-25T20:06:55.984Z,22.10
2018-11-25T20:09:28.350Z,20.10
2018-11-25T20:11:56.731Z,20.67
2018-11-25T20:14:24.982Z,19.53
2018-11-25T20:16:58.639Z,20.87
2018-11-25T20:19:27.293Z,19.73
2018-11-25T20:22:01.907Z,19.87
2018-11-25T20:24:30.726Z,19.67
2018-11-25T20:27:04.834Z,19.23
2018-11-25T20:29:34.223Z,18.43
2018-11-25T20:32:10.265Z,20.80
2018-11-25T20:34:38.295Z,15.40
2018-11-25T20:37:10.076Z,16.10
2018-11-25T20:39:38.010Z,14.47
2018-11-25T20:42:06.044Z,18.30
2018-11-25T20:44:33.888Z,16.40
2018-11-25T20:47:04.475Z,21.33
2018-11-25T20:49:32.987Z,16.17
2018-11-25T20:52:06.689Z,21.37
2018-11-25T20:54:34.735Z,17.30
2018-11-25T20:57:02.887Z,20.30
2018-11-25T20:59:31.208Z,21.07
2018-11-25T21:02:00.098Z,18.97
2018-11-25T21:04:29.648Z,18.37
2018-11-25T21:19:52.540Z,20.00
2018-11-25T21:22:20.260Z,21.93
2018-11-25T21:24:48.790Z,17.70
2018-11-25T21:27:16.790Z,20.17
2018-11-25T21:29:45.113Z,20.70
2018-11-25T21:32:14.045Z,18.03
2018-11-25T21:34:41.250Z,21.73
2018-11-25T21:37:08.454Z,18.20
2018-11-25T21:39:35.653Z,20.30
2018-11-25T21:42:02.863Z,20.07
2018-11-25T21:44:30.886Z,20.03
2018-11-25T21:46:58.046Z,20.93
2018-11-25T21:49:25.305Z,20.93
2018-11-25T21:51:52.503Z,22.03
2018-11-25T21:54:19.743Z,23.40
2018-11-25T21:56:46.947Z,23.10
2018-11-25T21:59:14.175Z,22.87
2018-11-25T22:01:41.374Z,17.43
2018-11-25T22:04:08.655Z,21.57
2018-11-25T22:06:35.853Z,23.73
2018-11-25T22:09:04.899Z,20.43
2018-11-25T22:11:38.809Z,22.87
2018-11-25T22:14:06.072Z,23.57
2018-11-25T22:16:33.308Z,22.23
2018-11-25T22:19:00.526Z,23.40
2018-11-25T22:21:27.861Z,18.20
2018-11-25T22:23:55.041Z,17.93
2018-11-25T22:26:22.245Z,23.60
2018-11-25T22:28:49.433Z,23.10
2018-11-25T22:31:16.641Z,19.53
2018-11-25T22:33:43.957Z,22.00
2018-11-25T22:36:11.194Z,26.43
2018-11-25T22:38:38.393Z,25.80
2018-11-25T22:41:05.683Z,21.70
2018-11-25T22:43:32.911Z,22.60
2018-11-25T22:46:00.171Z,23.83
2018-11-25T22:48:27.375Z,27.87
2018-11-25T22:50:54.611Z,26.27
2018-11-25T22:53:21.798Z,20.30
2018-11-25T22:55:48.994Z,22.90
2018-11-25T22:58:16.245Z,18.70
2018-11-25T23:00:43.545Z,18.90
2018-11-25T23:03:10.748Z,22.80
2018-11-25T23:05:51.110Z,22.77
2018-11-25T23:08:18.318Z,23.03
2018-11-25T23:10:45.577Z,23.90
2018-11-25T23:13:12.811Z,20.57
2018-11-25T23:15:40.019Z,20.00
2018-11-25T23:18:07.230Z,19.43
2018-11-25T23:20:34.394Z,21.57
2018-11-25T23:23:01.584Z,20.67
2018-11-25T23:25:28.785Z,25.53
2018-11-25T23:27:55.946Z,17.47
2018-11-25T23:30:23.214Z,24.90
2018-11-25T23:32:50.453Z,24.17
2018-11-25T23:35:18.916Z,25.10
2018-11-25T23:37:46.117Z,19.53
2018-11-25T23:40:13.281Z,19.87
2018-11-25T23:42:40.477Z,20.10
2018-11-25T23:45:10.257Z,21.20
2018-11-25T23:47:37.468Z,23.57
